Time;durP1;ratioP1;P1;durP2;ratioP2;P2;SDS_P1;SDS_P2;PMS_P1;PMS_P2;Temp;Humidity;BMP_temperature;BMP_pressure;BME280_temperature;BME280_humidity;BME280_pressure;Samples;Min_cycle;Max_cycle;Signal;HPM_P1;HPM_P2
2022/10/16 00:01:53;;;;;;;3.92;1.33;;;;;;;13.95;100.00;100737.75;5052738;28;20029;-58
2022/10/16 00:04:19;;;;;;;6.63;1.70;;;;;;;13.99;100.00;100746.41;5053085;28;20389;-58
2022/10/16 00:06:44;;;;;;;3.17;1.40;;;;;;;14.00;100.00;100751.63;5052704;28;20460;-59
2022/10/16 00:09:10;;;;;;;3.25;1.60;;;;;;;13.63;100.00;100682.03;5053075;28;20037;-59
2022/10/16 00:11:37;;;;;;;1.83;1.08;;;;;;;13.97;100.00;100746.50;5052910;28;20048;-60
2022/10/16 00:14:05;;;;;;;1.30;1.08;;;;;;;13.94;100.00;100761.66;5051679;28;20035;-59
2022/10/16 00:16:31;;;;;;;2.35;1.27;;;;;;;13.92;100.00;100748.47;5052698;28;20031;-61
2022/10/16 00:18:57;;;;;;;1.92;0.90;;;;;;;13.92;100.00;100745.00;5052480;28;20021;-60
2022/10/16 00:21:24;;;;;;;1.75;1.00;;;;;;;13.88;100.00;100738.97;5051443;28;20033;-59
2022/10/16 00:23:54;;;;;;;2.40;1.00;;;;;;;13.60;100.00;100688.28;5052685;28;20037;-61
2022/10/16 00:26:20;;;;;;;1.10;0.80;;;;;;;13.83;100.00;100725.13;5051148;28;20052;-58
2022/10/16 00:28:49;;;;;;;3.47;1.00;;;;;;;13.57;100.00;100672.59;5052597;28;20041;-59
2022/10/16 00:31:16;;;;;;;1.35;0.50;;;;;;;13.70;100.00;100688.72;5052646;28;20033;-57
2022/10/16 00:33:42;;;;;;;4.75;1.10;;;;;;;14.02;100.00;100735.66;5051545;28;20033;-58
2022/10/16 00:36:10;;;;;;;5.57;1.42;;;;;;;14.09;100.00;100731.81;5052517;28;20529;-59
2022/10/16 00:38:37;;;;;;;4.10;0.75;;;;;;;14.03;100.00;100718.88;5051760;28;20131;-59
2022/10/16 00:41:03;;;;;;;2.17;0.77;;;;;;;13.78;100.00;100671.56;5052307;28;20452;-57
2022/10/16 00:43:38;;;;;;;1.00;0.60;;;;;;;14.09;100.00;100724.72;5052480;28;20095;-59
2022/10/16 00:46:11;;;;;;;3.80;0.70;;;;;;;14.18;100.00;100728.72;5052258;28;20037;-59
2022/10/16 00:48:36;;;;;;;4.88;1.20;;;;;;;14.15;100.00;100733.28;5052129;28;20029;-61
2022/10/16 00:51:02;;;;;;;1.88;0.50;;;;;;;13.76;100.00;100677.84;5052110;28;20487;-60
2022/10/16 00:53:28;;;;;;;2.13;0.73;;;;;;;14.08;100.00;100730.94;5050915;28;20070;-59
2022/10/16 00:55:53;;;;;;;2.78;1.15;;;;;;;14.09;100.00;100737.09;5051960;28;20029;-60
2022/10/16 00:58:19;;;;;;;0.70;0.47;;;;;;;14.06;100.00;100724.00;5034029;28;20078;-59
2022/10/16 01:00:45;;;;;;;1.58;0.70;;;;;;;13.77;100.00;100674.28;5051112;28;20116;-60
2022/10/16 01:03:29;;;;;;;3.97;0.88;;;;;;;14.06;100.00;100730.16;5052302;28;20110;-57
2022/10/16 01:06:39;;;;;;;4.88;0.65;;;;;;;14.12;100.00;100728.16;5049964;28;20026;-58
2022/10/16 01:09:12;;;;;;;1.58;0.82;;;;;;;14.10;100.00;100734.38;5020906;28;20063;-60
2022/10/16 01:11:55;;;;;;;2.50;1.17;;;;;;;14.02;100.00;100733.03;5047541;28;20032;-57
2022/10/16 01:14:47;;;;;;;0.90;0.68;;;;;;;13.72;100.00;100694.81;5050719;28;20046;-58
2022/10/16 01:17:18;;;;;;;2.35;0.80;;;;;;;13.81;100.00;100716.38;5050843;28;20060;-58
2022/10/16 01:19:57;;;;;;;1.35;0.85;;;;;;;13.62;100.00;100696.16;5050498;28;20391;-57
2022/10/16 01:22:26;;;;;;;3.33;0.90;;;;;;;13.40;100.00;100662.78;5051916;28;20369;-61
2022/10/16 01:24:53;;;;;;;1.98;1.00;;;;;;;13.74;100.00;100735.28;5050454;28;20033;-60
2022/10/16 01:27:27;;;;;;;1.17;0.85;;;;;;;13.31;100.00;100659.75;5049899;28;20095;-61
2022/10/16 01:30:04;;;;;;;0.82;0.80;;;;;;;13.60;100.00;100730.59;5047354;28;20033;-60
2022/10/16 01:32:56;;;;;;;1.20;0.90;;;;;;;13.50;100.00;100726.69;5034902;28;20030;-55
2022/10/16 01:35:27;;;;;;;2.15;1.05;;;;;;;13.30;100.00;100717.03;5047415;28;20100;-58
2022/10/16 01:38:10;;;;;;;2.90;1.08;;;;;;;13.31;100.00;100725.81;5046968;28;20025;-60
2022/10/16 01:40:39;;;;;;;2.20;1.55;;;;;;;12.97;100.00;100666.50;5035327;28;20025;-58
2022/10/16 01:43:15;;;;;;;1.60;1.23;;;;;;;13.15;100.00;100715.06;5046988;28;20072;-59
2022/10/16 01:45:41;;;;;;;2.80;1.48;;;;;;;13.23;100.00;100725.28;5043999;28;20037;-61
2022/10/16 01:48:09;;;;;;;2.85;1.05;;;;;;;13.21;100.00;100727.16;5036045;28;20037;-57
2022/10/16 01:50:37;;;;;;;1.38;1.27;;;;;;;13.20;100.00;100721.00;5055760;28;20123;-58
2022/10/16 01:53:04;;;;;;;1.85;1.20;;;;;;;13.16;100.00;100723.88;5054570;28;20132;-58
2022/10/16 01:55:34;;;;;;;3.80;0.90;;;;;;;12.86;100.00;100675.84;5050444;28;20064;-59
2022/10/16 01:58:01;;;;;;;1.92;1.20;;;;;;;13.04;100.00;100712.03;5059665;28;20021;-59
2022/10/16 02:00:26;;;;;;;2.67;0.98;;;;;;;12.68;100.00;100658.16;5050887;28;20084;-60
2022/10/16 02:02:55;;;;;;;2.72;1.10;;;;;;;12.85;100.00;100688.19;5033995;28;20037;-60
2022/10/16 02:05:26;;;;;;;3.33;0.90;;;;;;;12.82;100.00;100682.19;5054189;28;20028;-57
2022/10/16 02:07:51;;;;;;;1.90;0.90;;;;;;;13.16;100.00;100734.44;5054065;28;20033;-57
2022/10/16 02:10:17;;;;;;;1.17;1.08;;;;;;;13.17;100.00;100731.72;5034282;28;20473;-59
2022/10/16 02:12:49;;;;;;;2.65;1.55;;;;;;;12.82;100.00;100687.47;5044624;28;20437;-59
2022/10/16 02:15:14;;;;;;;3.53;1.52;;;;;;;13.03;100.00;100715.59;5055142;28;20029;-59
2022/10/16 02:17:40;;;;;;;2.95;1.33;;;;;;;12.79;100.00;100679.66;5054745;28;20044;-58
2022/10/16 02:20:05;;;;;;;2.92;1.67;;;;;;;12.94;100.00;100711.56;5053864;28;20040;-57
2022/10/16 02:22:38;;;;;;;2.35;1.52;;;;;;;13.11;100.00;100734.63;5050656;28;20029;-56
2022/10/16 02:25:10;;;;;;;2.35;1.52;;;;;;;13.15;100.00;100754.72;5050419;28;20025;-60
2022/10/16 02:28:03;;;;;;;1.38;1.08;;;;;;;13.13;100.00;100743.38;5051473;28;20065;-57
2022/10/16 02:30:42;;;;;;;1.77;1.35;;;;;;;12.73;100.00;100672.88;5055080;28;20036;-57
2022/10/16 02:33:10;;;;;;;2.85;1.48;;;;;;;13.14;100.00;100745.06;5053623;28;20033;-59
2022/10/16 02:35:35;;;;;;;4.35;1.42;;;;;;;13.14;100.00;100738.91;5052362;28;20167;-57
2022/10/16 02:38:01;;;;;;;1.75;1.20;;;;;;;13.14;100.00;100734.50;5053399;28;20494;-59
2022/10/16 02:40:27;;;;;;;4.60;1.35;;;;;;;13.08;100.00;100745.31;5033353;28;20026;-59
2022/10/16 02:42:54;;;;;;;1.98;1.50;;;;;;;13.03;100.00;100749.94;5045337;28;20036;-59
2022/10/16 02:45:20;;;;;;;1.77;1.35;;;;;;;12.70;100.00;100693.28;5050236;28;20037;-59
2022/10/16 02:47:45;;;;;;;4.07;1.70;;;;;;;12.65;100.00;100687.34;5036195;28;20037;-60
2022/10/16 02:50:10;;;;;;;5.22;1.55;;;;;;;12.50;100.00;100666.88;5054572;28;20047;-59
2022/10/16 02:52:36;;;;;;;2.92;1.20;;;;;;;12.90;100.00;100746.13;5054579;28;20037;-58
2022/10/16 02:55:01;;;;;;;3.42;1.95;;;;;;;12.48;100.00;100688.06;5055167;28;20037;-61
2022/10/16 02:57:27;;;;;;;2.83;1.48;;;;;;;12.45;100.00;100696.13;5054424;28;20476;-59
2022/10/16 02:59:52;;;;;;;2.42;1.38;;;;;;;12.76;100.00;100751.13;5053854;28;20455;-60
2022/10/16 03:02:17;;;;;;;4.35;2.00;;;;;;;12.43;100.00;100701.44;5054500;28;20433;-58
2022/10/16 03:04:43;;;;;;;3.30;1.30;;;;;;;12.65;100.00;100738.38;5054299;28;20518;-58
2022/10/16 03:07:08;;;;;;;3.22;1.50;;;;;;;12.37;100.00;100690.31;5054151;28;20037;-60
2022/10/16 03:09:33;;;;;;;2.92;1.50;;;;;;;12.30;100.00;100678.28;5054115;28;20476;-58
2022/10/16 03:11:59;;;;;;;2.03;1.45;;;;;;;12.68;100.00;100747.94;5053989;28;20120;-58
2022/10/16 03:14:24;;;;;;;2.53;1.30;;;;;;;12.32;100.00;100689.63;5054267;28;20044;-54
2022/10/16 03:16:49;;;;;;;3.20;1.45;;;;;;;12.55;100.00;100725.63;5049506;28;20088;-58
2022/10/16 03:19:16;;;;;;;4.47;1.45;;;;;;;12.66;100.00;100742.75;5043278;28;20061;-58
2022/10/16 03:21:42;;;;;;;3.55;1.20;;;;;;;12.82;100.00;100749.06;5047679;28;20436;-58
2022/10/16 03:24:07;;;;;;;1.58;1.23;;;;;;;12.76;100.00;100733.50;5053718;28;20057;-57
2022/10/16 03:26:32;;;;;;;2.63;1.48;;;;;;;12.88;100.00;100764.66;5053685;28;20057;-58
2022/10/16 03:28:58;;;;;;;4.15;1.30;;;;;;;12.56;100.00;100701.78;5053720;28;20033;-58
2022/10/16 03:31:23;;;;;;;4.28;1.25;;;;;;;12.91;100.00;100756.59;5053775;28;20419;-59
2022/10/16 03:33:48;;;;;;;3.78;1.40;;;;;;;12.72;100.00;100724.00;5052510;28;20033;-58
2022/10/16 03:36:14;;;;;;;2.78;1.00;;;;;;;13.09;100.00;100769.97;5053518;28;20036;-58
2022/10/16 03:38:39;;;;;;;2.38;1.02;;;;;;;13.17;100.00;100773.13;5053440;28;20037;-59
2022/10/16 03:41:04;;;;;;;2.78;1.08;;;;;;;12.84;100.00;100715.50;5053750;28;20392;-59
2022/10/16 03:43:30;;;;;;;2.08;0.88;;;;;;;12.81;100.00;100701.63;5053683;28;20481;-58
2022/10/16 03:45:55;;;;;;;3.05;1.25;;;;;;;13.11;100.00;100750.47;5053570;28;20484;-58
2022/10/16 03:48:20;;;;;;;4.05;1.58;;;;;;;13.29;100.00;100778.75;5052414;28;20495;-60
2022/10/16 03:50:48;;;;;;;3.22;1.50;;;;;;;12.99;100.00;100727.19;5053197;28;20118;-59
2022/10/16 03:53:13;;;;;;;1.88;1.40;;;;;;;13.10;100.00;100745.28;5053094;28;20045;-57
2022/10/16 03:55:41;;;;;;;3.45;1.55;;;;;;;13.05;100.00;100741.97;5053508;28;20116;-60
2022/10/16 03:58:06;;;;;;;3.03;1.27;;;;;;;13.23;100.00;100786.09;5053405;28;20028;-59
2022/10/16 04:00:31;;;;;;;4.43;1.23;;;;;;;12.95;100.00;100746.78;5049715;28;20037;-56
2022/10/16 04:02:57;;;;;;;3.53;1.40;;;;;;;12.83;100.00;100749.94;5051933;28;20037;-57
2022/10/16 04:05:22;;;;;;;2.15;1.05;;;;;;;12.79;100.00;100745.69;5053076;28;20037;-61
2022/10/16 04:07:47;;;;;;;4.80;1.77;;;;;;;13.12;100.00;100806.84;5053122;28;20037;-58
2022/10/16 04:10:13;;;;;;;4.00;1.30;;;;;;;13.08;100.00;100807.88;5052744;28;20047;-56
2022/10/16 04:12:38;;;;;;;1.92;0.98;;;;;;;13.09;100.00;100817.53;5052497;28;20033;-57
2022/10/16 04:15:04;;;;;;;3.45;1.23;;;;;;;13.10;100.00;100814.00;5053449;28;20046;-60
2022/10/16 04:17:29;;;;;;;4.30;1.02;;;;;;;12.74;100.00;100748.56;5053213;28;20064;-60
2022/10/16 04:19:54;;;;;;;3.10;1.23;;;;;;;12.78;100.00;100763.31;5053286;28;20062;-59
2022/10/16 04:22:19;;;;;;;4.10;1.15;;;;;;;12.77;100.00;100755.47;5053111;28;20037;-60
2022/10/16 04:24:45;;;;;;;2.15;1.05;;;;;;;13.06;100.00;100809.72;5053092;28;20475;-57
2022/10/16 04:27:10;;;;;;;2.42;1.33;;;;;;;13.13;100.00;100813.84;5053066;28;20049;-56
2022/10/16 04:29:35;;;;;;;1.58;1.10;;;;;;;12.83;100.00;100768.44;5053080;28;20099;-58
2022/10/16 04:32:01;;;;;;;3.78;1.23;;;;;;;13.12;100.00;100813.00;5051819;28;20037;-61
2022/10/16 04:34:26;;;;;;;5.00;1.85;;;;;;;13.23;100.00;100837.16;5053091;28;20040;-60
2022/10/16 04:36:51;;;;;;;5.00;1.58;;;;;;;12.82;100.00;100769.34;5052669;28;20029;-59
2022/10/16 04:39:17;;;;;;;2.55;1.35;;;;;;;13.14;100.00;100834.06;5038601;28;20055;-59
2022/10/16 04:41:42;;;;;;;6.07;1.60;;;;;;;12.62;100.00;100764.03;5041525;28;20037;-59
2022/10/16 04:44:08;;;;;;;2.35;1.65;;;;;;;13.07;100.00;100845.78;5052334;28;20037;-58
2022/10/16 04:46:33;;;;;;;3.97;1.70;;;;;;;12.79;100.00;100801.16;5051019;28;20028;-60
2022/10/16 04:48:58;;;;;;;2.03;1.35;;;;;;;13.10;100.00;100862.41;5048311;28;20492;-61
2022/10/16 04:51:25;;;;;;;4.97;1.65;;;;;;;13.07;100.00;100862.50;5052233;28;20400;-56
2022/10/16 04:53:50;;;;;;;2.28;1.25;;;;;;;12.96;100.00;100839.16;5052149;28;20435;-59
2022/10/16 04:56:16;;;;;;;2.95;1.20;;;;;;;13.17;100.00;100874.44;5052039;28;20045;-58
2022/10/16 04:58:41;;;;;;;4.45;1.58;;;;;;;12.87;100.00;100817.56;5052117;28;20041;-58
2022/10/16 05:01:06;;;;;;;3.25;1.33;;;;;;;12.91;100.00;100825.31;5052477;28;20037;-60
2022/10/16 05:03:32;;;;;;;1.48;0.90;;;;;;;13.21;100.00;100878.69;5052105;28;20139;-60
2022/10/16 05:05:57;;;;;;;2.30;1.45;;;;;;;13.20;100.00;100876.09;5051819;28;20075;-59
2022/10/16 05:08:22;;;;;;;3.88;1.58;;;;;;;12.86;100.00;100818.50;5051843;28;20097;-61
2022/10/16 05:10:48;;;;;;;3.35;1.65;;;;;;;12.81;100.00;100808.09;5047373;28;20034;-61
2022/10/16 05:13:13;;;;;;;5.28;1.88;;;;;;;13.10;100.00;100874.78;5050083;28;20171;-61
2022/10/16 05:15:38;;;;;;;4.28;1.65;;;;;;;13.09;100.00;100887.13;5052057;28;20363;-59
2022/10/16 05:18:04;;;;;;;5.43;1.58;;;;;;;13.01;100.00;100889.19;5052005;28;20498;-63
2022/10/16 05:20:29;;;;;;;4.38;1.90;;;;;;;12.64;100.00;100833.53;5050591;28;20488;-61
2022/10/16 05:22:54;;;;;;;7.35;2.35;;;;;;;12.96;100.00;100904.34;5051453;28;20036;-59
2022/10/16 05:25:20;;;;;;;6.88;2.33;;;;;;;12.88;100.00;100903.81;5051863;28;20041;-61
2022/10/16 05:27:48;;;;;;;3.75;2.20;;;;;;;12.87;100.00;100912.69;5051863;28;20053;-59
2022/10/16 05:30:14;;;;;;;5.03;2.03;;;;;;;12.82;100.00;100901.41;5051817;28;20550;-60
2022/10/16 05:32:39;;;;;;;3.97;2.30;;;;;;;12.77;100.00;100904.25;5051818;28;20060;-61
2022/10/16 05:35:05;;;;;;;5.70;2.58;;;;;;;12.39;100.00;100836.28;5051503;28;20079;-61
2022/10/16 05:37:30;;;;;;;8.60;3.13;;;;;;;12.61;100.00;100897.03;5035435;28;20087;-61
2022/10/16 05:39:55;;;;;;;5.07;2.85;;;;;;;12.58;100.00;100903.25;5051961;28;20040;-60
2022/10/16 05:42:21;;;;;;;6.03;3.33;;;;;;;12.64;100.00;100915.38;5051658;28;20037;-58
2022/10/16 05:44:46;;;;;;;5.28;2.83;;;;;;;12.59;100.00;100914.69;5051819;28;20040;-61
2022/10/16 05:47:12;;;;;;;8.13;3.38;;;;;;;12.50;100.00;100910.63;5051123;28;20448;-61
2022/10/16 05:49:37;;;;;;;6.50;4.07;;;;;;;12.52;100.00;100921.16;5051079;28;20068;-60
2022/10/16 05:52:03;;;;;;;7.18;3.60;;;;;;;12.51;100.00;100917.63;5051480;28;20061;-61
2022/10/16 05:54:28;;;;;;;4.22;3.05;;;;;;;12.49;100.00;100915.97;5051713;28;20396;-61
2022/10/16 05:56:54;;;;;;;11.13;3.40;;;;;;;12.09;100.00;100846.25;5043254;28;20033;-61
2022/10/16 05:59:19;;;;;;;6.07;3.40;;;;;;;12.46;100.00;100937.22;5066006;28;20400;-60
2022/10/16 06:01:44;;;;;;;7.50;3.50;;;;;;;12.43;100.00;100922.38;5051277;28;20511;-60
2022/10/16 06:04:10;;;;;;;14.57;3.58;;;;;;;12.43;100.00;100916.22;5045869;28;20388;-60
2022/10/16 06:06:36;;;;;;;7.65;3.55;;;;;;;12.06;100.00;100863.97;5051305;28;20489;-59
2022/10/16 06:09:02;;;;;;;6.70;3.80;;;;;;;12.34;100.00;100926.22;5051637;28;20036;-61
2022/10/16 06:11:29;;;;;;;4.07;2.75;;;;;;;12.32;100.00;100913.97;5034900;28;20079;-61
2022/10/16 06:13:57;;;;;;;5.53;3.30;;;;;;;12.01;100.00;100873.84;5051415;28;20476;-60
2022/10/16 06:16:23;;;;;;;4.88;2.90;;;;;;;12.35;100.00;100938.47;5047218;28;20124;-60
2022/10/16 06:18:51;;;;;;;4.68;3.20;;;;;;;12.35;100.00;100937.59;5051045;28;20400;-60
2022/10/16 06:21:19;;;;;;;6.88;2.88;;;;;;;11.97;100.00;100874.84;5046425;28;20037;-61
2022/10/16 06:23:48;;;;;;;6.60;2.72;;;;;;;12.03;100.00;100887.81;5037013;28;20037;-60
2022/10/16 06:26:15;;;;;;;6.30;3.03;;;;;;;12.35;100.00;100950.81;5050535;28;20427;-60
2022/10/16 06:28:41;;;;;;;7.53;2.85;;;;;;;12.30;100.00;100943.06;5050968;28;20028;-60
2022/10/16 06:31:08;;;;;;;8.95;3.35;;;;;;;12.05;100.00;100893.94;5051058;28;20141;-62
2022/10/16 06:33:34;;;;;;;7.65;3.00;;;;;;;12.34;100.00;100943.81;5046754;28;20033;-62
2022/10/16 06:36:11;;;;;;;9.73;2.53;;;;;;;12.04;100.00;100897.47;5031188;28;20500;-60
2022/10/16 06:38:37;;;;;;;7.85;2.30;;;;;;;12.40;100.00;100962.06;5053822;28;20040;-59
2022/10/16 06:41:03;;;;;;;4.38;2.42;;;;;;;12.40;100.00;100972.63;5055074;28;20419;-60
2022/10/16 06:43:32;;;;;;;9.25;2.25;;;;;;;12.47;100.00;100968.81;5054739;28;20480;-60
2022/10/16 06:45:58;;;;;;;7.60;2.00;;;;;;;12.51;100.00;100969.56;5054618;28;20045;-62
2022/10/16 06:48:24;;;;;;;8.27;1.63;;;;;;;12.52;100.00;100969.50;5053307;28;20056;-60
2022/10/16 06:50:59;;;;;;;5.18;1.95;;;;;;;12.62;100.00;100984.09;5036970;28;20075;-60
2022/10/16 06:53:26;;;;;;;4.57;1.83;;;;;;;12.63;100.00;100990.25;5038057;28;20025;-60
2022/10/16 06:55:51;;;;;;;8.70;1.52;;;;;;;12.61;100.00;100989.44;5050075;28;20423;-61
2022/10/16 06:58:17;;;;;;;5.03;1.75;;;;;;;12.59;100.00;100991.25;5044897;28;20033;-61
2022/10/16 07:00:42;;;;;;;5.10;1.92;;;;;;;12.23;100.00;100938.94;5054174;28;20032;-61
2022/10/16 07:03:08;;;;;;;3.50;1.60;;;;;;;12.32;100.00;100964.13;5052666;28;20476;-60
2022/10/16 07:05:38;;;;;;;5.93;1.90;;;;;;;12.24;100.00;100963.56;5054339;28;20128;-60
2022/10/16 07:08:05;;;;;;;7.43;2.00;;;;;;;12.47;100.00;101012.84;5049513;28;20025;-60
2022/10/16 07:10:31;;;;;;;5.75;2.38;;;;;;;12.12;100.00;100956.94;5034165;28;20523;-61
2022/10/16 07:12:56;;;;;;;9.02;1.95;;;;;;;12.47;100.00;101026.91;5049786;28;20022;-60
2022/10/16 07:15:21;;;;;;;6.78;2.40;;;;;;;12.48;100.00;101030.41;5052574;28;20032;-59
2022/10/16 07:17:47;;;;;;;7.63;2.40;;;;;;;12.46;100.00;101017.28;5054133;28;20056;-59
2022/10/16 07:20:12;;;;;;;6.72;2.78;;;;;;;12.57;100.00;101040.63;5052555;28;20032;-59
2022/10/16 07:22:37;;;;;;;6.55;2.58;;;;;;;12.36;100.00;101000.06;5053757;28;20384;-61
2022/10/16 07:25:03;;;;;;;5.20;2.70;;;;;;;12.63;100.00;101050.97;5053872;28;20403;-60
2022/10/16 07:27:28;;;;;;;9.18;2.28;;;;;;;12.36;100.00;100997.41;5053479;28;20053;-59
2022/10/16 07:29:54;;;;;;;7.88;2.97;;;;;;;12.68;100.00;101071.00;5053658;28;20037;-61
2022/10/16 07:32:19;;;;;;;6.88;2.35;;;;;;;12.70;100.00;101079.72;5047114;28;20041;-57
2022/10/16 07:34:45;;;;;;;6.35;2.65;;;;;;;12.75;100.00;101071.66;5054024;28;20489;-60
2022/10/16 07:37:11;;;;;;;5.78;2.33;;;;;;;12.70;100.00;101057.72;5050850;28;20037;-60
2022/10/16 07:39:36;;;;;;;8.68;2.78;;;;;;;12.69;100.00;101059.53;5037654;28;20029;-60
2022/10/16 07:42:01;;;;;;;10.38;2.90;;;;;;;12.56;100.00;101029.22;5049163;28;20045;-59
2022/10/16 07:44:26;;;;;;;5.60;2.63;;;;;;;12.63;100.00;101028.06;5045014;28;20072;-60
2022/10/16 07:46:52;;;;;;;7.75;2.83;;;;;;;12.74;100.00;101039.09;5053223;28;20092;-60
2022/10/16 07:49:17;;;;;;;7.63;2.90;;;;;;;13.10;100.00;101099.41;5049723;28;20041;-61
2022/10/16 07:51:42;;;;;;;5.25;2.85;;;;;;;13.15;100.00;101102.72;5048962;28;20033;-61
2022/10/16 07:54:09;;;;;;;3.75;2.10;;;;;;;13.13;100.00;101097.50;5042349;28;20041;-60
2022/10/16 07:56:34;;;;;;;6.00;3.10;;;;;;;13.26;100.00;101100.50;5048747;28;20039;-60
2022/10/16 07:59:00;;;;;;;5.22;1.95;;;;;;;13.29;100.00;101111.84;5048395;28;20520;-59
2022/10/16 08:01:25;;;;;;;6.75;2.47;;;;;;;13.03;100.00;101063.53;5053401;28;20086;-59
2022/10/16 08:03:52;;;;;;;6.95;2.30;;;;;;;12.93;100.00;101052.44;5053094;28;20041;-60
2022/10/16 08:06:19;;;;;;;10.63;2.13;;;;;;;13.50;100.00;101131.28;5053296;28;20139;-59
2022/10/16 08:08:44;;;;;;;5.68;2.28;;;;;;;13.50;100.00;101123.34;5042232;28;20041;-61
2022/10/16 08:11:10;;;;;;;9.43;2.22;;;;;;;13.34;100.00;101095.78;5049215;28;20175;-60
2022/10/16 08:13:35;;;;;;;8.68;2.45;;;;;;;13.71;100.00;101162.19;5048531;28;20066;-60
2022/10/16 08:16:01;;;;;;;8.75;2.95;;;;;;;13.73;100.00;101146.22;5052762;28;20044;-58
2022/10/16 08:18:26;;;;;;;5.43;2.13;;;;;;;13.74;100.00;101146.19;5053201;28;20040;-60
2022/10/16 08:20:57;;;;;;;9.13;2.33;;;;;;;13.83;100.00;101161.69;5053078;28;20036;-61
2022/10/16 08:23:25;;;;;;;9.30;2.05;;;;;;;13.53;100.00;101095.00;5048390;28;20416;-62
2022/10/16 08:25:50;;;;;;;7.65;2.35;;;;;;;14.00;100.00;101179.53;5050524;28;20043;-59
2022/10/16 08:28:16;;;;;;;8.85;2.05;;;;;;;13.98;100.00;101150.44;5052211;28;20108;-60
2022/10/16 08:30:41;;;;;;;7.15;2.92;;;;;;;14.15;100.00;101173.59;5051777;28;20123;-60
2022/10/16 08:33:07;;;;;;;5.95;2.15;;;;;;;14.24;100.00;101169.69;5052254;28;20037;-61
2022/10/16 08:35:32;;;;;;;10.35;2.70;;;;;;;13.79;100.00;101071.91;5052530;28;20056;-59
2022/10/16 08:37:58;;;;;;;4.60;1.50;;;;;;;14.56;100.00;101198.34;5052680;28;20043;-58
2022/10/16 08:40:30;;;;;;;9.02;1.85;;;;;;;14.77;100.00;101192.09;5052543;28;20070;-59
2022/10/16 08:43:18;;;;;;;7.18;1.98;;;;;;;15.02;100.00;101195.41;5052036;28;20021;-62
2022/10/16 08:46:04;;;;;;;7.50;2.13;;;;;;;15.32;100.00;101201.09;5052450;28;20032;-60
2022/10/16 08:48:36;;;;;;;5.97;1.60;;;;;;;15.58;100.00;101208.75;5047692;28;20030;-60
2022/10/16 08:51:02;;;;;;;7.13;1.83;;;;;;;16.18;100.00;101226.16;5027454;28;20473;-59
2022/10/16 08:53:43;;;;;;;8.95;2.00;;;;;;;16.73;100.00;101234.03;5052187;28;20017;-62
2022/10/16 08:56:08;;;;;;;6.95;1.95;;;;;;;16.70;100.00;101189.00;5047718;28;20034;-59
2022/10/16 08:58:33;;;;;;;10.32;2.22;;;;;;;17.26;100.00;101264.00;5030698;28;20392;-59
2022/10/16 09:01:01;;;;;;;4.90;1.40;;;;;;;17.60;100.00;101257.75;5034186;28;20470;-60
2022/10/16 09:03:33;;;;;;;10.35;2.15;;;;;;;17.83;100.00;101293.78;5052072;28;20108;-59
2022/10/16 09:06:36;;;;;;;8.00;2.17;;;;;;;17.41;100.00;101228.59;5052164;28;20433;-59
2022/10/16 09:09:19;;;;;;;8.85;2.22;;;;;;;17.69;100.00;101286.53;5051532;28;20033;-58
2022/10/16 09:12:05;;;;;;;6.40;2.15;;;;;;;18.24;100.00;101304.78;5051701;28;20484;-59
2022/10/16 09:15:28;;;;;;;8.60;2.40;;;;;;;18.40;100.00;101295.81;5051966;28;20036;-59
2022/10/16 09:17:56;;;;;;;12.15;3.40;;;;;;;19.10;100.00;101289.00;4996778;28;20133;-61
2022/10/16 09:20:39;;;;;;;8.75;2.15;;;;;;;20.03;100.00;101297.41;5009938;28;20042;-60
2022/10/16 09:23:04;;;;;;;13.13;2.42;;;;;;;20.37;100.00;101381.69;5014521;28;20037;-59
2022/10/16 09:25:30;;;;;;;10.13;2.43;;;;;;;20.39;100.00;101379.75;5032160;28;20466;-59
2022/10/16 09:27:55;;;;;;;7.72;2.38;;;;;;;20.67;100.00;101336.88;5030743;28;20288;-59
2022/10/16 09:30:21;;;;;;;6.88;2.33;;;;;;;20.92;100.00;101326.28;5032121;28;20067;-59
2022/10/16 09:32:49;;;;;;;11.73;2.00;;;;;;;21.78;100.00;101387.22;5032136;28;20060;-57
2022/10/16 09:35:21;;;;;;;7.70;2.17;;;;;;;22.16;100.00;101371.09;5047791;28;20033;-61
2022/10/16 09:37:49;;;;;;;6.32;2.03;;;;;;;22.27;100.00;101386.44;5032248;28;20036;-59
2022/10/16 09:40:34;;;;;;;9.35;2.70;;;;;;;22.78;100.00;101385.31;5032037;28;20380;-63
2022/10/16 09:43:11;;;;;;;10.48;2.83;;;;;;;23.34;100.00;101378.34;5030933;28;20052;-59
2022/10/16 09:45:37;;;;;;;9.80;2.40;;;;;;;23.55;100.00;101342.75;5031934;28;20034;-60
2022/10/16 09:48:11;;;;;;;7.90;1.88;;;;;;;23.95;100.00;101384.31;5039269;28;20389;-59
2022/10/16 09:50:36;;;;;;;8.25;2.25;;;;;;;23.63;100.00;101335.78;5050252;28;20079;-61
2022/10/16 09:53:10;;;;;;;5.22;2.13;;;;;;;24.04;100.00;101387.13;5050044;28;20120;-60
2022/10/16 09:55:35;;;;;;;7.95;2.17;;;;;;;23.41;100.00;101330.38;5046513;28;20033;-61
2022/10/16 09:58:01;;;;;;;5.70;1.67;;;;;;;22.62;100.00;101392.75;5049904;28;20040;-59
2022/10/16 10:00:26;;;;;;;7.03;2.20;;;;;;;22.20;100.00;101398.56;5050547;28;20029;-61
2022/10/16 10:02:52;;;;;;;12.68;2.83;;;;;;;21.12;100.00;101391.84;5051498;28;20037;-59
2022/10/16 10:05:21;;;;;;;12.90;3.15;;;;;;;20.22;100.00;101327.38;5036685;28;20034;-60
2022/10/16 10:07:54;;;;;;;9.80;2.55;;;;;;;19.43;100.00;101311.03;5050953;28;20032;-59
2022/10/16 10:10:25;;;;;;;9.82;2.17;;;;;;;18.85;100.00;101312.78;5047243;28;20465;-56
2022/10/16 10:12:50;;;;;;;;;;;;;;;18.62;100.00;101367.47;5051179;28;20088;-56
2022/10/16 10:15:21;;;;;;;9.48;2.47;;;;;;;18.43;100.00;101367.59;5049291;28;19920;-58
2022/10/16 10:17:47;;;;;;;;;;;;;;;18.14;100.00;101372.84;5054559;28;20029;-52
2022/10/16 10:20:23;;;;;;;8.82;2.50;;;;;;;17.85;100.00;101361.13;5033974;28;20007;-61
2022/10/16 10:22:49;;;;;;;9.82;2.50;;;;;;;17.28;100.00;101287.84;5045185;28;20127;-56
2022/10/16 10:25:42;;;;;;;9.55;3.03;;;;;;;18.21;100.00;101369.78;5055196;28;20112;-56
2022/10/16 10:28:43;;;;;;;7.03;2.05;;;;;;;18.93;100.00;101401.22;5055317;28;20140;-54
2022/10/16 10:31:23;;;;;;;13.32;2.47;;;;;;;19.43;100.00;101376.91;5043979;28;20045;-57
2022/10/16 10:34:34;;;;;;;6.90;2.15;;;;;;;21.24;100.00;101420.47;5053397;28;20044;-52
2022/10/16 10:37:22;;;;;;;7.10;1.92;;;;;;;22.48;100.00;101429.59;4964764;28;20049;-54
2022/10/16 10:40:22;;;;;;;6.75;2.10;;;;;;;23.28;100.00;101431.66;5053058;28;20025;-56
2022/10/16 10:42:53;;;;;;;6.07;1.80;;;;;;;23.89;100.00;101379.41;5041396;28;20415;-54
2022/10/16 10:45:32;;;;;;;;;;;;;;;24.78;100.00;101435.88;5053657;28;20045;-53
2022/10/16 10:48:16;;;;;;;9.75;2.63;;;;;;;25.22;100.00;101448.38;5049762;28;20283;-55
2022/10/16 10:50:48;;;;;;;8.85;1.98;;;;;;;25.77;100.00;101440.00;5043522;28;20041;-55
2022/10/16 10:53:34;;;;;;;5.85;2.17;;;;;;;26.21;100.00;101398.38;5049680;28;20480;-53
2022/10/16 10:56:25;;;;;;;10.50;2.58;;;;;;;26.62;100.00;101454.06;5054328;28;20591;-54
2022/10/16 10:58:56;;;;;;;9.95;2.70;;;;;;;26.61;100.00;101406.44;5005918;28;20516;-53
2022/10/16 11:01:38;;;;;;;9.50;1.85;;;;;;;27.07;100.00;101440.94;5034486;28;20547;-56
2022/10/16 11:04:17;;;;;;;5.82;1.90;;;;;;;26.50;97.99;101412.81;5053011;28;20122;-58
2022/10/16 11:06:59;;;;;;;14.18;3.10;;;;;;;26.67;100.00;101452.66;5045810;28;20033;-56
2022/10/16 11:09:28;;;;;;;7.30;2.10;;;;;;;26.99;100.00;101474.06;5052954;28;20056;-54
2022/10/16 11:12:26;;;;;;;6.97;2.30;;;;;;;27.65;95.02;101468.84;5052995;28;20053;-58
2022/10/16 11:15:03;;;;;;;11.75;2.72;;;;;;;27.52;88.66;101482.66;5033876;28;20079;-55
2022/10/16 11:17:32;;;;;;;7.60;2.25;;;;;;;27.44;88.27;101428.44;5054171;28;20036;-56
2022/10/16 11:20:05;;;;;;;7.75;2.10;;;;;;;28.37;87.25;101467.22;5049529;28;20121;-58
2022/10/16 11:22:34;;;;;;;11.50;2.15;;;;;;;27.75;80.77;101469.69;5052632;28;20116;-55
2022/10/16 11:25:19;;;;;;;7.68;2.65;;;;;;;28.00;87.19;101479.88;5052402;28;20024;-56
2022/10/16 11:27:50;;;;;;;8.63;2.53;;;;;;;27.84;89.06;101482.34;5053843;28;20053;-53